Island Lookout — WDF6311 — position and weather

sailwx.info

Track history (hours):
 
Tides and Currents Weather Stations Pressure Air Temp Water Temp Dewpoint Dewpoint Depression Visibility Wind Speed Wind Dir Waves Ship Positions

Island Lookout

Owner: Stevens Towing Company Inc., Yonges Island, SC. More information available from US FCC via Universal Licensing System and Coast Guard Vessel Documentation Center.

Last reported at 2017-Feb-21 16:33 UTC. Time now 2017-Feb-21 17:19 UTC.
Position N 39°40' W 075°32'.

Length 22 m; draft 2.9 m.

Type: Towing. MMSI: 367472930.

Date/timePositionNaut miles runAvg speedWind from/ knotsBaromVisibWave heightAir tempDewpointWater temp
2017-Feb-21 16:33N 39°40' W 075°32'5 4.6
2017-Feb-21 15:33N 39°36' W 075°34'4 4.0
2017-Feb-21 14:33N 39°33' W 075°38'5 5.0
2017-Feb-21 13:33N 39°32' W 075°44'5 4.8
2017-Feb-21 12:33N 39°32' W 075°51'6 5.7
2017-Feb-21 11:33N 39°29' W 075°57'7 7.2
2017-Feb-21 10:33N 39°24' W 076°03'8 7.4
2017-Feb-21 09:32N 39°20' W 076°12'8 7.5
2017-Feb-21 08:25N 39°12' W 076°16'6 7.3
2017-Feb-21 07:32N 39°07' W 076°20'15 6.8
2017-Feb-21 05:19N 38°52' W 076°26'116 6.3
2017-Feb-20 11:03N 36°57' W 076°20'4 7.3
2017-Feb-20 10:33N 36°53' W 076°20'6 6.2
2017-Feb-20 09:33N 36°47' W 076°18'4 4.3
2017-Feb-20 08:33N 36°44' W 076°15'9 0.2
2017-Feb-18 15:31N 36°41' W 076°04'13 2.6
2017-Feb-18 10:31N 36°48' W 076°18'131 6.2
2017-Feb-17 13:26N 38°58' W 076°23'7 6.3
2017-Feb-17 12:23N 39°05' W 076°21'21 6.8
2017-Feb-17 09:14N 39°23' W 076°06'5 6.8
2017-Feb-17 08:33N 39°25' W 076°01'7 6.5
2017-Feb-17 07:33N 39°30' W 075°55'6 5.6
2017-Feb-17 06:33N 39°32' W 075°49'5 5.2
2017-Feb-17 05:33N 39°33' W 075°42'5 4.8
2017-Feb-17 04:33N 39°33' W 075°36'4 4.3
2017-Feb-17 03:33N 39°38' W 075°35'8 8.1
2017-Feb-17 02:33N 39°45' W 075°30'8 8.2
2017-Feb-17 01:33N 39°50' W 075°22'8 7.7
2017-Feb-17 00:33N 39°53' W 075°12'4 3.8
2017-Feb-16 23:33N 39°54' W 075°08'0 0.0
2017-Feb-16 22:33N 39°54' W 075°08'0 0.0
2017-Feb-16 21:33N 39°54' W 075°08'0 0.0
2017-Feb-16 20:33N 39°54' W 075°08'0 0.0
2017-Feb-16 19:33N 39°54' W 075°08'0 0.0
2017-Feb-16 18:33N 39°54' W 075°08'0 0.0
2017-Feb-16 17:33N 39°54' W 075°08'0 0.0
2017-Feb-16 16:33N 39°54' W 075°08'0 0.0
2017-Feb-16 15:33N 39°54' W 075°08'5 4.5
2017-Feb-16 14:33N 39°52' W 075°13'2 1.8
2017-Feb-16 13:33N 39°51' W 075°15'4 3.8
2017-Feb-16 12:33N 39°53' W 075°11'3 2.6
2017-Feb-16 11:33N 39°54' W 075°08'0 0.0
2017-Feb-16 10:33N 39°54' W 075°08'0 0.0
2017-Feb-16 09:33N 39°54' W 075°08'0 0.0
2017-Feb-16 08:33N 39°54' W 075°08'0 0.0
2017-Feb-16 07:33N 39°54' W 075°08'0 0.0
2017-Feb-16 06:33N 39°54' W 075°08'0 0.0
2017-Feb-16 05:33N 39°54' W 075°08'5 4.7
2017-Feb-16 04:33N 39°52' W 075°13'6 5.6
2017-Feb-16 03:33N 39°51' W 075°20'5 5.3
2017-Feb-16 02:33N 39°48' W 075°26'5 5.2
2017-Feb-16 01:33N 39°44' W 075°30'5 4.6
2017-Feb-16 00:33N 39°39' W 075°32'4 3.9
2017-Feb-15 23:33N 39°36' W 075°34'3 3.5
2017-Feb-15 22:33N 39°33' W 075°37'6 6.0
2017-Feb-15 21:33N 39°32' W 075°45'5 5.3
2017-Feb-15 20:33N 39°32' W 075°52'6 5.7
2017-Feb-15 19:33N 39°28' W 075°58'6 6.0
2017-Feb-15 18:33N 39°24' W 076°03'7 6.9
2017-Feb-15 17:33N 39°21' W 076°11'8 7.2
2017-Feb-15 16:23N 39°13' W 076°15'58 7.3
2017-Feb-15 08:26N 38°15' W 076°18'7 7.5
2017-Feb-15 07:33N 38°08' W 076°16'73 7.0
2017-Feb-14 21:07N 36°56' W 076°20'4 7.4
2017-Feb-14 20:33N 36°52' W 076°19'6 5.6
2017-Feb-14 19:33N 36°46' W 076°18'3 3.4
2017-Feb-14 18:33N 36°44' W 076°15'9 3.0
2017-Feb-14 15:26N 36°41' W 076°04'  
2017-Feb-12 03:14N 36°43' W 076°13'2 2.3
2017-Feb-12 02:26N 36°43' W 076°15'3 3.8
2017-Feb-12 01:33N 36°46' W 076°18'4 3.9
2017-Feb-12 00:33N 36°50' W 076°18'7 6.9
2017-Feb-11 23:33N 36°56' W 076°20'  
Track history (hours):
 
Tides and Currents Weather Stations Pressure Air Temp Water Temp Dewpoint Dewpoint Depression Visibility Wind Speed Wind Dir Waves Ship Positions

Island Lookout

Owner: Stevens Towing Company Inc., Yonges Island, SC. More information available from US FCC via Universal Licensing System and Coast Guard Vessel Documentation Center.

Last reported at 2017-Feb-21 16:33 UTC. Time now 2017-Feb-21 17:19 UTC.
Position N 39°40' W 075°32'.

Length 22 m; draft 2.9 m.

Type: Towing. MMSI: 367472930.

Date/timePositionNaut miles runAvg speedWind from/ knotsBaromVisibWave heightAir tempDewpointWater temp
2017-Feb-21 16:33N 39°40' W 075°32'5 4.6
2017-Feb-21 15:33N 39°36' W 075°34'4 4.0
2017-Feb-21 14:33N 39°33' W 075°38'5 5.0
2017-Feb-21 13:33N 39°32' W 075°44'5 4.8
2017-Feb-21 12:33N 39°32' W 075°51'6 5.7
2017-Feb-21 11:33N 39°29' W 075°57'7 7.2
2017-Feb-21 10:33N 39°24' W 076°03'8 7.4
2017-Feb-21 09:32N 39°20' W 076°12'8 7.5
2017-Feb-21 08:25N 39°12' W 076°16'6 7.3
2017-Feb-21 07:32N 39°07' W 076°20'15 6.8
2017-Feb-21 05:19N 38°52' W 076°26'116 6.3
2017-Feb-20 11:03N 36°57' W 076°20'4 7.3
2017-Feb-20 10:33N 36°53' W 076°20'6 6.2
2017-Feb-20 09:33N 36°47' W 076°18'4 4.3
2017-Feb-20 08:33N 36°44' W 076°15'9 0.2
2017-Feb-18 15:31N 36°41' W 076°04'13 2.6
2017-Feb-18 10:31N 36°48' W 076°18'131 6.2
2017-Feb-17 13:26N 38°58' W 076°23'7 6.3
2017-Feb-17 12:23N 39°05' W 076°21'21 6.8
2017-Feb-17 09:14N 39°23' W 076°06'5 6.8
2017-Feb-17 08:33N 39°25' W 076°01'7 6.5
2017-Feb-17 07:33N 39°30' W 075°55'6 5.6
2017-Feb-17 06:33N 39°32' W 075°49'5 5.2
2017-Feb-17 05:33N 39°33' W 075°42'5 4.8
2017-Feb-17 04:33N 39°33' W 075°36'4 4.3
2017-Feb-17 03:33N 39°38' W 075°35'8 8.1
2017-Feb-17 02:33N 39°45' W 075°30'8 8.2
2017-Feb-17 01:33N 39°50' W 075°22'8 7.7
2017-Feb-17 00:33N 39°53' W 075°12'4 3.8
2017-Feb-16 23:33N 39°54' W 075°08'0 0.0
2017-Feb-16 22:33N 39°54' W 075°08'0 0.0
2017-Feb-16 21:33N 39°54' W 075°08'0 0.0
2017-Feb-16 20:33N 39°54' W 075°08'0 0.0
2017-Feb-16 19:33N 39°54' W 075°08'0 0.0
2017-Feb-16 18:33N 39°54' W 075°08'0 0.0
2017-Feb-16 17:33N 39°54' W 075°08'0 0.0
2017-Feb-16 16:33N 39°54' W 075°08'0 0.0
2017-Feb-16 15:33N 39°54' W 075°08'5 4.5
2017-Feb-16 14:33N 39°52' W 075°13'2 1.8
2017-Feb-16 13:33N 39°51' W 075°15'4 3.8
2017-Feb-16 12:33N 39°53' W 075°11'3 2.6
2017-Feb-16 11:33N 39°54' W 075°08'0 0.0
2017-Feb-16 10:33N 39°54' W 075°08'0 0.0
2017-Feb-16 09:33N 39°54' W 075°08'0 0.0
2017-Feb-16 08:33N 39°54' W 075°08'0 0.0
2017-Feb-16 07:33N 39°54' W 075°08'0 0.0
2017-Feb-16 06:33N 39°54' W 075°08'0 0.0
2017-Feb-16 05:33N 39°54' W 075°08'5 4.7
2017-Feb-16 04:33N 39°52' W 075°13'6 5.6
2017-Feb-16 03:33N 39°51' W 075°20'5 5.3
2017-Feb-16 02:33N 39°48' W 075°26'5 5.2
2017-Feb-16 01:33N 39°44' W 075°30'5 4.6
2017-Feb-16 00:33N 39°39' W 075°32'4 3.9
2017-Feb-15 23:33N 39°36' W 075°34'3 3.5
2017-Feb-15 22:33N 39°33' W 075°37'6 6.0
2017-Feb-15 21:33N 39°32' W 075°45'5 5.3
2017-Feb-15 20:33N 39°32' W 075°52'6 5.7
2017-Feb-15 19:33N 39°28' W 075°58'6 6.0
2017-Feb-15 18:33N 39°24' W 076°03'7 6.9
2017-Feb-15 17:33N 39°21' W 076°11'8 7.2
2017-Feb-15 16:23N 39°13' W 076°15'58 7.3
2017-Feb-15 08:26N 38°15' W 076°18'7 7.5
2017-Feb-15 07:33N 38°08' W 076°16'73 7.0
2017-Feb-14 21:07N 36°56' W 076°20'4 7.4
2017-Feb-14 20:33N 36°52' W 076°19'6 5.6
2017-Feb-14 19:33N 36°46' W 076°18'3 3.4
2017-Feb-14 18:33N 36°44' W 076°15'9 3.0
2017-Feb-14 15:26N 36°41' W 076°04'  
2017-Feb-12 03:14N 36°43' W 076°13'2 2.3
2017-Feb-12 02:26N 36°43' W 076°15'3 3.8
2017-Feb-12 01:33N 36°46' W 076°18'4 3.9
2017-Feb-12 00:33N 36°50' W 076°18'7 6.9
2017-Feb-11 23:33N 36°56' W 076°20'  

Dump ship's entire track history